KEXX

Davidson County Airport

Lexington, North Carolina, USA
METAR KEXX 170120Z AUTO 00000KT 10SM CLR 08/05 A3000 RMK AO2 T00840054
Observed Flight Rules
Dec-17 @ 01:20 UTC (18 minutes ago) Visual Flight Rules
Visibility Clouds
10 miles
  • Clear skies
Temperatures Readings
Current 8°C / 46°F
Dewpoint 5°C / 41°F
Humidity 82%
Altimeter 30" Hg
Pressure 1016 hPa
Elevation 223
METAR KEXX 170120Z AUTO 00000KT 10SM CLR 08/05 A3000 RMK AO2 T00840054
Observed Flight Rules
Dec-17 @ 01:20 UTC
(18 minutes ago)
VFR
Clouds
  • Clear skies
Temperature Dewpoint
8°C / 46°F 5°C / 41°F
Humidity Altimeter Pressure
82% 30" Hg 1016 hPa